createdAt,value
2022-09-22T00:01:18.739Z,92822.28
2022-09-22T00:04:22.093Z,92817.81
2022-09-22T00:07:25.744Z,92817.72
2022-09-22T00:10:29.403Z,92826.34
2022-09-22T00:13:33.879Z,92831.28
2022-09-22T00:16:38.422Z,92836.59
2022-09-22T00:19:41.617Z,92833.50
2022-09-22T00:22:44.649Z,92841.13
2022-09-22T00:25:47.838Z,92843.94
2022-09-22T00:28:52.308Z,92858.75
2022-09-22T00:31:56.090Z,92861.91
2022-09-22T00:34:59.097Z,92873.47
2022-09-22T00:38:02.250Z,92879.13
2022-09-22T00:41:06.144Z,92878.34
2022-09-22T00:44:27.664Z,92884.53
2022-09-22T00:47:56.822Z,92894.09
2022-09-22T00:51:03.531Z,92895.72
2022-09-22T00:54:10.659Z,92892.78
2022-09-22T00:57:24.712Z,92898.44
2022-09-22T01:00:27.880Z,92894.09
2022-09-22T01:03:32.090Z,92905.91
2022-09-22T01:06:36.866Z,92905.13
2022-09-22T01:09:39.914Z,92901.84
2022-09-22T01:13:17.168Z,92902.59
2022-09-22T01:16:47.347Z,92917.66
2022-09-22T01:19:59.254Z,92922.41
2022-09-22T01:23:17.347Z,92927.00
2022-09-22T01:26:21.162Z,92930.78
2022-09-22T01:30:18.977Z,92934.66
2022-09-22T01:33:34.822Z,92936.56
2022-09-22T01:36:57.131Z,92932.44
2022-09-22T01:40:10.152Z,92937.00
2022-09-22T01:43:21.732Z,92936.84
2022-09-22T01:46:47.989Z,92936.56
2022-09-22T01:49:54.981Z,92941.66
2022-09-22T01:53:02.656Z,92936.97
2022-09-22T01:56:10.200Z,92939.47
2022-09-22T01:59:17.434Z,92940.78
2022-09-22T02:02:45.872Z,92930.22
2022-09-22T02:06:04.872Z,92934.09
2022-09-22T02:09:11.354Z,92939.28
2022-09-22T02:12:15.391Z,92939.88
2022-09-22T02:15:38.400Z,92933.88
2022-09-22T02:18:52.844Z,92926.47
2022-09-22T02:21:56.278Z,92932.88
2022-09-22T02:24:59.359Z,92932.28
2022-09-22T02:28:03.295Z,92929.06
2022-09-22T02:31:20.107Z,92924.38
2022-09-22T02:34:24.270Z,92935.47
2022-09-22T02:37:39.244Z,92930.72
2022-09-22T02:41:08.511Z,92932.50
2022-09-22T02:44:22.005Z,92929.13
2022-09-22T02:47:53.022Z,92931.00
2022-09-22T02:50:56.283Z,92925.63
2022-09-22T02:53:59.435Z,92929.66
2022-09-22T02:57:02.597Z,92921.25
2022-09-22T03:00:06.892Z,92921.03
2022-09-22T03:03:12.172Z,92918.91
2022-09-22T03:06:15.382Z,92923.97
2022-09-22T03:09:18.744Z,92911.41
2022-09-22T03:12:21.974Z,92911.50
2022-09-22T03:15:27.237Z,92916.00
2022-09-22T03:18:30.372Z,92917.22
2022-09-22T03:21:33.383Z,92911.78
2022-09-22T03:24:36.671Z,92910.22
2022-09-22T03:27:40.051Z,92913.38
2022-09-22T03:30:43.187Z,92903.97
2022-09-22T03:33:49.336Z,92905.16
2022-09-22T03:36:55.583Z,92907.56
2022-09-22T03:39:58.646Z,92914.19
2022-09-22T03:43:02.260Z,92900.22
2022-09-22T03:46:05.540Z,92911.22
2022-09-22T03:49:09.490Z,92899.84
2022-09-22T03:52:12.990Z,92904.47
2022-09-22T03:55:16.287Z,92891.72
2022-09-22T03:58:23.229Z,92895.41
2022-09-22T04:01:26.704Z,92901.59
2022-09-22T04:04:29.802Z,92900.78
2022-09-22T04:07:32.806Z,92908.50
2022-09-22T04:10:36.310Z,92900.47
2022-09-22T04:13:44.042Z,92906.34
2022-09-22T04:16:49.396Z,92890.34
2022-09-22T04:19:52.502Z,92897.34
2022-09-22T04:22:55.505Z,92892.94
2022-09-22T04:25:58.576Z,92899.28
2022-09-22T04:29:01.709Z,92894.63
2022-09-22T04:32:04.844Z,92889.09
2022-09-22T04:35:08.797Z,92892.06
2022-09-22T04:38:11.890Z,92888.59
2022-09-22T04:41:15.050Z,92888.94
2022-09-22T04:44:17.968Z,92887.28
2022-09-22T04:47:21.017Z,92894.63
2022-09-22T04:50:25.215Z,92896.16
2022-09-22T04:53:28.194Z,92886.91
2022-09-22T04:56:31.231Z,92892.66
2022-09-22T04:59:35.568Z,92887.72
2022-09-22T05:02:38.602Z,92884.56
2022-09-22T05:05:41.795Z,92878.94
2022-09-22T05:08:44.837Z,92882.09
2022-09-22T05:11:50.798Z,92876.16
2022-09-22T05:14:54.056Z,92885.31
2022-09-22T05:17:57.358Z,92893.00
2022-09-22T05:21:00.778Z,92883.34
2022-09-22T05:24:04.514Z,92888.00
2022-09-22T05:27:08.348Z,92881.88
2022-09-22T05:30:11.753Z,92879.94
2022-09-22T05:33:14.776Z,92886.72
2022-09-22T05:36:17.919Z,92884.75
2022-09-22T05:39:22.334Z,92883.06
2022-09-22T05:42:25.397Z,92881.00
2022-09-22T05:45:28.483Z,92882.66
2022-09-22T05:48:31.695Z,92873.34
2022-09-22T05:51:34.769Z,92885.34
2022-09-22T05:54:37.790Z,92872.28
2022-09-22T05:57:41.127Z,92881.47
2022-09-22T06:00:44.203Z,92881.78
2022-09-22T06:03:47.300Z,92876.28
2022-09-22T06:06:50.711Z,92884.22
2022-09-22T06:09:53.753Z,92888.84
2022-09-22T06:13:07.725Z,92876.38
2022-09-22T06:16:10.681Z,92870.59
2022-09-22T06:19:13.713Z,92873.72
2022-09-22T06:22:18.548Z,92877.00
2022-09-22T06:25:21.872Z,92865.19
2022-09-22T06:28:24.879Z,92873.97
2022-09-22T06:31:28.008Z,92867.19
2022-09-22T06:34:31.245Z,92856.09
2022-09-22T06:37:34.406Z,92874.53
2022-09-22T06:40:37.738Z,92871.72
2022-09-22T06:43:40.905Z,92864.81
2022-09-22T06:46:43.946Z,92865.31
2022-09-22T06:49:47.358Z,92858.06
2022-09-22T06:52:52.599Z,92854.75
2022-09-22T06:55:55.743Z,92857.50
2022-09-22T06:59:09.777Z,92842.03
2022-09-22T07:02:13.241Z,92846.47
2022-09-22T07:05:19.225Z,92844.34
2022-09-22T07:08:23.675Z,92843.28
2022-09-22T07:11:26.713Z,92842.25
2022-09-22T07:14:30.297Z,92849.03
2022-09-22T07:17:35.850Z,92847.25
2022-09-22T07:20:39.066Z,92854.97
2022-09-22T07:23:44.327Z,92853.72
2022-09-22T07:26:47.310Z,92847.03
2022-09-22T07:29:50.398Z,92846.38
2022-09-22T07:32:53.597Z,92845.41
2022-09-22T07:36:05.445Z,92848.41
2022-09-22T07:39:11.603Z,92844.84
2022-09-22T07:42:14.745Z,92844.84
2022-09-22T07:45:17.934Z,92840.41
2022-09-22T07:48:43.587Z,92841.69
2022-09-22T07:51:46.702Z,92846.75
2022-09-22T07:54:50.350Z,92853.34
2022-09-22T07:58:03.901Z,92839.50
2022-09-22T08:01:10.991Z,92839.09
2022-09-22T08:04:21.726Z,92841.81
2022-09-22T08:07:24.945Z,92840.63
2022-09-22T08:10:28.112Z,92835.16
2022-09-22T08:13:31.815Z,92837.63
2022-09-22T08:16:37.996Z,92849.38
2022-09-22T08:19:42.217Z,92835.47
2022-09-22T08:22:45.315Z,92833.31
2022-09-22T08:25:48.412Z,92843.28
2022-09-22T08:28:56.681Z,92839.72
2022-09-22T08:32:01.804Z,92851.84
2022-09-22T08:35:05.749Z,92843.09
2022-09-22T08:38:12.739Z,92845.47
2022-09-22T08:41:38.922Z,92847.56
2022-09-22T08:45:03.540Z,92848.34
2022-09-22T08:48:38.955Z,92847.06
2022-09-22T08:51:55.870Z,92851.06
2022-09-22T08:55:00.283Z,92851.88
2022-09-22T08:58:29.489Z,92854.34
2022-09-22T09:02:01.711Z,92846.22
2022-09-22T09:05:41.181Z,92859.06
2022-09-22T09:09:12.388Z,92863.97
2022-09-22T09:12:57.734Z,92865.63
2022-09-22T09:16:51.828Z,92869.81
2022-09-22T09:20:05.579Z,92872.03
2022-09-22T09:27:08.277Z,92880.88
2022-09-22T09:30:18.612Z,92885.56
2022-09-22T09:33:25.003Z,92885.09
2022-09-22T09:36:32.021Z,92883.41
2022-09-22T09:39:38.437Z,92889.50
2022-09-22T09:42:41.568Z,92896.94
2022-09-22T09:45:50.946Z,92891.31
2022-09-22T09:49:06.141Z,92898.97
2022-09-22T09:52:13.287Z,92908.44
2022-09-22T09:55:27.754Z,92913.97
2022-09-22T09:58:49.561Z,92910.97
2022-09-22T10:01:55.020Z,92914.56
2022-09-22T10:05:02.280Z,92921.34
2022-09-22T10:08:20.824Z,92924.13
2022-09-22T10:11:31.977Z,92917.75
2022-09-22T10:14:36.103Z,92920.63
2022-09-22T10:17:45.634Z,92931.91
2022-09-22T10:21:04.482Z,92925.47
2022-09-22T10:24:28.212Z,92924.84
2022-09-22T10:27:32.579Z,92926.97
2022-09-22T10:30:38.713Z,92933.63
2022-09-22T10:33:55.353Z,92917.16
2022-09-22T10:37:00.608Z,92934.41
2022-09-22T10:40:14.375Z,92937.81
2022-09-22T10:43:47.901Z,92947.19
2022-09-22T10:47:15.612Z,92938.19
2022-09-22T10:50:24.528Z,92946.88
2022-09-22T10:53:47.952Z,92945.75
2022-09-22T10:56:55.123Z,92947.25
2022-09-22T11:00:22.824Z,92950.63
2022-09-22T11:03:44.132Z,92956.09
2022-09-22T11:07:17.212Z,92944.44
2022-09-22T11:11:04.298Z,92947.31
2022-09-22T11:14:16.471Z,92952.03
2022-09-22T11:17:30.589Z,92950.13
2022-09-22T11:20:39.713Z,92956.19
2022-09-22T11:24:01.668Z,92941.25
2022-09-22T11:27:05.363Z,92950.56
2022-09-22T11:30:21.482Z,92953.25
2022-09-22T11:33:45.991Z,92950.63
2022-09-22T11:37:27.963Z,92947.31
2022-09-22T11:41:18.807Z,92948.09
2022-09-22T11:44:35.096Z,92945.56
2022-09-22T11:47:57.155Z,92956.09
2022-09-22T11:51:09.829Z,92958.88
2022-09-22T11:54:39.565Z,92966.22
2022-09-22T11:57:48.325Z,92967.63
2022-09-22T12:01:08.509Z,92960.50
2022-09-22T12:04:33.315Z,92967.13
2022-09-22T12:07:55.367Z,92963.34
2022-09-22T12:10:59.653Z,92968.06
2022-09-22T12:14:03.991Z,92961.59
2022-09-22T12:17:12.951Z,92963.66
2022-09-22T12:20:34.777Z,92965.03
2022-09-22T12:23:46.450Z,92953.28
2022-09-22T12:26:52.600Z,92962.50
2022-09-22T12:30:13.642Z,92960.53
2022-09-22T12:33:18.162Z,92965.88
2022-09-22T12:36:37.198Z,92966.53
2022-09-22T12:39:44.892Z,92965.97
2022-09-22T12:42:54.175Z,92971.84
2022-09-22T12:46:01.830Z,92963.91
2022-09-22T12:49:09.867Z,92962.00
2022-09-22T12:52:57.816Z,92967.31
2022-09-22T12:56:01.084Z,92970.06
2022-09-22T12:59:04.164Z,92958.97
2022-09-22T13:02:17.079Z,92953.78
2022-09-22T13:05:28.019Z,92952.50
2022-09-22T13:08:35.221Z,92946.63
2022-09-22T13:12:22.206Z,92944.63
2022-09-22T13:15:27.987Z,92937.50
2022-09-22T13:18:50.843Z,92935.41
2022-09-22T13:21:54.153Z,92941.31
2022-09-22T13:24:57.759Z,92936.06
2022-09-22T13:28:17.712Z,92931.44
2022-09-22T13:31:21.201Z,92922.28
2022-09-22T13:34:36.409Z,92932.03
2022-09-22T13:37:39.653Z,92937.91
2022-09-22T13:40:50.158Z,92934.56
2022-09-22T13:43:58.140Z,92931.97
2022-09-22T13:47:07.050Z,92934.59
2022-09-22T13:50:19.844Z,92935.34
2022-09-22T13:53:24.294Z,92941.25
2022-09-22T13:56:28.351Z,92938.66
2022-09-22T13:59:40.735Z,92937.34
2022-09-22T14:02:46.840Z,92936.69
2022-09-22T14:05:55.070Z,92935.34
2022-09-22T14:08:59.072Z,92927.47
2022-09-22T14:12:03.838Z,92932.66
2022-09-22T14:15:25.666Z,92931.28
2022-09-22T14:18:30.234Z,92922.19
2022-09-22T14:21:41.952Z,92914.31
2022-09-22T14:24:52.946Z,92924.19
2022-09-22T14:28:00.532Z,92930.78
2022-09-22T14:31:14.726Z,92920.31
2022-09-22T14:34:23.311Z,92921.69
2022-09-22T14:37:33.059Z,92919.75
2022-09-22T14:40:39.032Z,92921.72
2022-09-22T14:43:43.061Z,92922.97
2022-09-22T14:46:47.163Z,92917.03
2022-09-22T14:49:51.154Z,92917.03
2022-09-22T14:52:54.914Z,92919.66
2022-09-22T14:56:05.046Z,92914.41
2022-09-22T14:59:28.288Z,92905.28
2022-09-22T15:02:37.429Z,92910.59
2022-09-22T15:05:42.424Z,92905.97
2022-09-22T15:08:49.788Z,92905.22
2022-09-22T15:12:01.286Z,92897.41
2022-09-22T15:15:27.217Z,92902.59
2022-09-22T15:18:31.406Z,92898.00
2022-09-22T15:21:38.455Z,92896.00
2022-09-22T15:24:41.622Z,92899.94
2022-09-22T15:27:45.295Z,92902.59
2022-09-22T15:30:50.027Z,92896.00
2022-09-22T15:33:54.004Z,92894.03
2022-09-22T15:36:57.805Z,92893.41
2022-09-22T15:40:01.491Z,92898.69
2022-09-22T15:43:13.483Z,92888.81
2022-09-22T15:46:34.350Z,92882.88
2022-09-22T15:49:37.506Z,92886.16
2022-09-22T15:52:42.958Z,92884.28
2022-09-22T15:55:46.088Z,92889.56
2022-09-22T15:58:51.945Z,92896.75
2022-09-22T16:01:57.612Z,92885.63
2022-09-22T16:05:00.660Z,92883.69
2022-09-22T16:08:04.577Z,92881.75
2022-09-22T16:11:07.682Z,92878.41
2022-09-22T16:14:12.245Z,92873.16
2022-09-22T16:17:15.357Z,92873.91
2022-09-22T16:20:18.534Z,92869.97
2022-09-22T16:23:21.586Z,92869.31
2022-09-22T16:26:27.570Z,92861.44
2022-09-22T16:29:30.653Z,92851.03
2022-09-22T16:32:36.842Z,92851.75
2022-09-22T16:35:40.011Z,92846.50
2022-09-22T16:38:43.022Z,92843.91
2022-09-22T16:41:47.055Z,92833.50
2022-09-22T16:44:50.114Z,92842.13
2022-09-22T16:47:53.206Z,92825.88
2022-09-22T16:50:56.403Z,92824.66
2022-09-22T16:54:00.099Z,92823.44
2022-09-22T16:57:03.197Z,92813.13
2022-09-22T17:00:06.631Z,92809.41
2022-09-22T17:03:09.731Z,92804.94
2022-09-22T17:06:15.523Z,92802.34
2022-09-22T17:09:19.629Z,92795.88
2022-09-22T17:12:23.659Z,92803.06
2022-09-22T17:15:26.954Z,92804.47
2022-09-22T17:18:30.028Z,92798.06
2022-09-22T17:21:35.252Z,92792.25
2022-09-22T17:24:38.534Z,92790.28
2022-09-22T17:27:41.645Z,92787.00
2022-09-22T17:30:44.989Z,92776.53
2022-09-22T17:33:52.194Z,92782.44
2022-09-22T17:36:56.112Z,92782.47
2022-09-22T17:39:59.249Z,92773.31
2022-09-22T17:43:04.809Z,92767.44
2022-09-22T17:46:08.508Z,92759.66
2022-09-22T17:49:31.688Z,92766.88
2022-09-22T17:52:55.772Z,92764.34
2022-09-22T17:56:04.248Z,92761.72
2022-09-22T17:59:07.321Z,92758.50
2022-09-22T18:02:12.786Z,92755.25
2022-09-22T18:05:18.519Z,92763.09
2022-09-22T18:08:21.721Z,92751.94
2022-09-22T18:11:27.950Z,92755.88
2022-09-22T18:14:31.569Z,92750.00
2022-09-22T18:17:43.574Z,92757.84
2022-09-22T18:20:46.560Z,92764.44
2022-09-22T18:23:49.578Z,92757.91
2022-09-22T18:26:54.078Z,92753.97
2022-09-22T18:30:00.333Z,92756.59
2022-09-22T18:33:03.332Z,92742.25
2022-09-22T18:36:06.568Z,92747.44
2022-09-22T18:39:09.908Z,92749.41
2022-09-22T18:42:14.462Z,92750.69
2022-09-22T18:45:17.443Z,92746.78
2022-09-22T18:48:20.512Z,92746.78
2022-09-22T18:51:26.698Z,92734.34
2022-09-22T18:54:32.486Z,92734.38
2022-09-22T18:57:36.574Z,92730.50
2022-09-22T19:00:39.562Z,92726.63
2022-09-22T19:03:42.646Z,92724.72
2022-09-22T19:07:05.228Z,92721.53
2022-09-22T19:10:09.102Z,92719.59
2022-09-22T19:13:13.061Z,92722.84
2022-09-22T19:16:16.235Z,92713.09
2022-09-22T19:19:21.352Z,92722.28
2022-09-22T19:22:24.705Z,92705.97
2022-09-22T19:25:28.427Z,92702.72
2022-09-22T19:28:32.114Z,92693.63
2022-09-22T19:31:37.372Z,92702.78
2022-09-22T19:34:40.611Z,92699.56
2022-09-22T19:37:43.674Z,92697.03
2022-09-22T19:40:47.132Z,92695.03
2022-09-22T19:43:50.245Z,92700.94
2022-09-22T19:46:53.760Z,92690.50
2022-09-22T19:49:57.178Z,92686.56
2022-09-22T19:53:00.110Z,92677.41
2022-09-22T19:56:03.403Z,92667.66
2022-09-22T19:59:10.367Z,92668.94
2022-09-22T20:02:15.445Z,92663.06
2022-09-22T20:05:22.575Z,92649.38
2022-09-22T20:08:27.529Z,92655.91
2022-09-22T20:11:32.870Z,92655.91
2022-09-22T20:14:35.991Z,92659.81
2022-09-22T20:17:39.109Z,92650.03
2022-09-22T20:20:42.119Z,92656.56
2022-09-22T20:23:45.104Z,92645.50
2022-09-22T20:26:48.928Z,92657.22
2022-09-22T20:29:56.267Z,92652.63
2022-09-22T20:33:00.209Z,92648.03
2022-09-22T20:36:03.345Z,92638.94
2022-09-22T20:39:06.566Z,92636.34
2022-09-22T20:42:10.115Z,92637.59
2022-09-22T20:45:13.737Z,92630.41
2022-09-22T20:48:19.263Z,92638.91
2022-09-22T20:51:22.563Z,92638.94
2022-09-22T20:54:25.699Z,92624.59
2022-09-22T20:57:32.797Z,92637.00
2022-09-22T21:00:35.927Z,92638.31
2022-09-22T21:03:39.653Z,92635.69
2022-09-22T21:06:42.654Z,92635.69
2022-09-22T21:10:04.455Z,92637.00
2022-09-22T21:13:07.494Z,92649.41
2022-09-22T21:16:11.054Z,92642.22
2022-09-22T21:19:14.112Z,92644.19
2022-09-22T21:22:17.387Z,92640.91
2022-09-22T21:25:20.788Z,92640.28
2022-09-22T21:28:24.624Z,92635.72
2022-09-22T21:31:28.615Z,92635.69
2022-09-22T21:34:31.684Z,92633.75
2022-09-22T21:37:34.646Z,92629.16
2022-09-22T21:40:37.706Z,92628.50
2022-09-22T21:43:41.006Z,92622.59
2022-09-22T21:46:44.836Z,92616.06
2022-09-22T21:49:47.891Z,92617.34
2022-09-22T21:52:50.890Z,92626.50
2022-09-22T21:56:05.930Z,92631.03
2022-09-22T21:59:10.045Z,92614.72
2022-09-22T22:02:13.302Z,92621.34
2022-09-22T22:05:16.679Z,92622.63
2022-09-22T22:08:19.661Z,92626.53
2022-09-22T22:11:24.812Z,92625.91
2022-09-22T22:14:32.598Z,92621.28
2022-09-22T22:17:35.778Z,92618.00
2022-09-22T22:20:38.746Z,92619.97
2022-09-22T22:23:44.238Z,92613.38
2022-09-22T22:26:57.731Z,92615.94
2022-09-22T22:30:01.049Z,92609.34
2022-09-22T22:33:04.061Z,92623.66
2022-09-22T22:36:09.249Z,92629.50
2022-09-22T22:39:12.930Z,92626.81
2022-09-22T22:42:15.929Z,92619.59
2022-09-22T22:45:19.266Z,92627.38
2022-09-22T22:48:29.968Z,92611.00
2022-09-22T22:51:36.308Z,92605.66
2022-09-22T22:54:39.374Z,92614.72
2022-09-22T22:57:42.752Z,92614.00
2022-09-22T23:00:46.275Z,92602.84
2022-09-22T23:03:55.420Z,92598.25
2022-09-22T23:06:58.767Z,92601.47
2022-09-22T23:10:11.216Z,92602.13
2022-09-22T23:13:15.992Z,92594.41
2022-09-22T23:16:21.461Z,92587.22
2022-09-22T23:19:27.397Z,92587.88
2022-09-22T23:22:33.952Z,92590.44
2022-09-22T23:25:38.444Z,92584.47
2022-09-22T23:28:42.082Z,92588.81
2022-09-22T23:31:46.702Z,92597.75
2022-09-22T23:34:50.273Z,92601.41
2022-09-22T23:38:17.272Z,92585.34
2022-09-22T23:41:20.919Z,92588.22
2022-09-22T23:44:23.852Z,92590.34
2022-09-22T23:47:26.906Z,92590.38
2022-09-22T23:50:29.868Z,92584.72
2022-09-22T23:53:35.938Z,92576.06
2022-09-22T23:56:39.087Z,92574.16
2022-09-22T23:59:42.138Z,92573.47
